^^
Meteo Knjazevac Station Historical Data
Daily Summary for April 14, 2021 Units:  English    Metric   Both
Daily Weekly Monthly Yearly Custom
  High: Low: Average:
Temperature: 72.3 °F 62.6 °F 66.3 °F
Dew Point: 65.4 °F 58 °F 60 °F
Humidity: 88% 69% 80%
Wind Speed: 3mph 0mph 0.8mph
Wind Gust: 9mph - -
Wind- - SSW
Pressure: 30.05 in 29.99 in -
Precipitation: 0.00 in    
Historical Graphs
 
 
Tabular Data for April 14, 2021
Time Temperature Dew Point Pressure Wind Wind Speed Wind Gust Humidity Rainfall Rate (Hourly) solar Conditions
00:00 72.1 °F 61.4 °F 29.99 in Calm   2 mph 69% 0.00 in 0 W/m2
00:10 71.8 °F 61.5 °F 29.99 in SE 1 mph 2 mph 70% 0.00 in 0 W/m2
00:20 71.2 °F 61 °F 29.99 in Calm   3 mph 70% 0.00 in 0 W/m2
00:30 70.7 °F 61.6 °F 29.99 in WNW 2 mph 3 mph 73% 0.00 in 0 W/m2
00:40 70.2 °F 61.1 °F 29.99 in West 2 mph 3 mph 73% 0.00 in 0 W/m2
00:50 69.4 °F 60.4 °F 29.99 in WSW 1 mph 3 mph 73% 0.00 in 0 W/m2
01:00 68.7 °F 60.1 °F 29.99 in WSW 1 mph 2 mph 74% 0.00 in 0 W/m2
01:10 68.2 °F 60 °F 29.99 in West 2 mph 4 mph 75% 0.00 in 0 W/m2
01:20 68 °F 59.8 °F 29.99 in West 2 mph 4 mph 75% 0.00 in 0 W/m2
01:30 67.8 °F 59.6 °F 29.99 in WSW 2 mph 5 mph 75% 0.00 in 0 W/m2
01:40 67.5 °F 59.3 °F 30.00 in West 2 mph 5 mph 75% 0.00 in 0 W/m2
01:50 67.3 °F 59.1 °F 30.00 in WNW 2 mph 4 mph 75% 0.00 in 0 W/m2
02:00 67.3 °F 59.1 °F 30.00 in Calm   4 mph 75% 0.00 in 0 W/m2
02:10 67.3 °F 59.8 °F 30.00 in Calm   2 mph 77% 0.00 in 0 W/m2
02:20 66.9 °F 59.8 °F 30.00 in Calm   1 mph 78% 0.00 in 0 W/m2
02:30 66.7 °F 59.7 °F 30.00 in Calm   2 mph 78% 0.00 in 0 W/m2
02:40 66.4 °F 59.3 °F 30.00 in Calm   1 mph 78% 0.00 in 0 W/m2
02:50 65.8 °F 59.1 °F 30.00 in Calm   2 mph 79% 0.00 in 0 W/m2
03:00 65.5 °F 59.1 °F 30.00 in Calm   2 mph 80% 0.00 in 0 W/m2
03:10 65.1 °F 58.8 °F 30.00 in Calm   2 mph 80% 0.00 in 0 W/m2
03:20 64.9 °F 58.6 °F 30.01 in Calm   1 mph 80% 0.00 in 0 W/m2
03:30 64.9 °F 58.6 °F 30.01 in North 1 mph 2 mph 80% 0.00 in 0 W/m2
03:40 64.9 °F 59 °F 30.01 in North 1 mph 2 mph 81% 0.00 in 0 W/m2
03:50 64.9 °F 59 °F 30.01 in Calm   4 mph 81% 0.00 in 0 W/m2
04:00 64.6 °F 58.6 °F 30.01 in WNW 1 mph 5 mph 81% 0.00 in 0 W/m2
04:10 64.8 °F 59.5 °F 30.01 in Calm   6 mph 83% 0.00 in 0 W/m2
04:20 64.4 °F 58.5 °F 30.01 in NE 1 mph 5 mph 81% 0.00 in 0 W/m2
04:30 64.4 °F 59.1 °F 30.01 in Calm   2 mph 83% 0.00 in 0 W/m2
04:40 64 °F 58.8 °F 30.02 in Calm   2 mph 83% 0.00 in 0 W/m2
04:50 63.7 °F 58.4 °F 30.01 in Calm   1 mph 83% 0.00 in 0 W/m2
05:00 63.5 °F 58.6 °F 30.02 in West 1 mph 1 mph 84% 0.00 in 0 W/m2
05:10 63.1 °F 58.2 °F 30.02 in Calm   2 mph 84% 0.00 in 7 W/m2
05:20 63 °F 58.4 °F 30.02 in Calm   1 mph 85% 0.00 in 14 W/m2
05:30 62.8 °F 58.2 °F 30.03 in West 1 mph 2 mph 85% 0.00 in 24 W/m2
05:40 62.6 °F 58 °F 30.03 in Calm   3 mph 85% 0.00 in 35 W/m2
05:50 62.8 °F 58.2 °F 30.03 in Calm   1 mph 85% 0.00 in 48 W/m2
06:00 62.6 °F 58.4 °F 30.04 in Calm   1 mph 86% 0.00 in 65 W/m2
06:10 62.6 °F 58.4 °F 30.04 in NNW 1 mph 2 mph 86% 0.00 in 83 W/m2
06:20 62.6 °F 58.4 °F 30.04 in Calm   2 mph 86% 0.00 in 101 W/m2
06:30 63 °F 59.3 °F 30.04 in NW 1 mph 2 mph 88% 0.00 in 127 W/m2
06:40 63.3 °F 59.1 °F 30.04 in Calm   2 mph 86% 0.00 in 147 W/m2
06:50 63.7 °F 59.4 °F 30.04 in NW 1 mph 2 mph 86% 0.00 in 170 W/m2
07:00 64 °F 59.8 °F 30.04 in West 1 mph 2 mph 86% 0.00 in 197 W/m2
07:10 64.6 °F 60 °F 30.04 in WSW 2 mph 2 mph 85% 0.00 in 227 W/m2
07:20 64.9 °F 60.3 °F 30.04 in Calm   2 mph 85% 0.00 in 256 W/m2
07:30 65.6 °F 60.7 °F 30.04 in WNW 1 mph 2 mph 84% 0.00 in 287 W/m2
07:40 66.2 °F 61.2 °F 30.04 in Calm   2 mph 84% 0.00 in 319 W/m2
07:50 66.9 °F 62.3 °F 30.05 in SE 2 mph 3 mph 85% 0.00 in 356 W/m2
08:00 68 °F 62.6 °F 30.05 in NE 1 mph 5 mph 83% 0.00 in 388 W/m2
08:10 69.1 °F 63 °F 30.05 in NE 2 mph 7 mph 81% 0.00 in 421 W/m2
08:20 69.8 °F 63.3 °F 30.05 in NNE 3 mph 7 mph 80% 0.00 in 453 W/m2
08:30 70.7 °F 64.2 °F 30.05 in North 1 mph 8 mph 80% 0.00 in 486 W/m2
08:40 71.4 °F 64.6 °F 30.05 in NNE 3 mph 8 mph 79% 0.00 in 516 W/m2
08:50 72.3 °F 65.4 °F 30.05 in NNE 1 mph 9 mph 79% 0.00 in 552 W/m2
Knjazevac, Serbia
Compliments of Weather Underground - 2 mb